Time;durP1;ratioP1;P1;durP2;ratioP2;P2;SDS_P1;SDS_P2;PMS_P1;PMS_P2;Temp;Humidity;BMP_temperature;BMP_pressure;BME280_temperature;BME280_humidity;BME280_pressure;Samples;Min_cycle;Max_cycle;Signal;HPM_P1;HPM_P2
2022/11/27 00:00:06;;;;;;;14.77;11.40;;;2.10;99.90;;;;;;5033100;28;20207;-50
2022/11/27 00:02:33;;;;;;;24.53;14.50;;;2.00;99.90;;;;;;5034377;28;20665;-51
2022/11/27 00:05:01;;;;;;;19.17;12.77;;;1.90;99.90;;;;;;5033063;28;20216;-50
2022/11/27 00:07:28;;;;;;;19.80;13.13;;;1.80;99.90;;;;;;5034317;28;20207;-50
2022/11/27 00:09:55;;;;;;;13.67;11.27;;;1.70;99.90;;;;;;5033495;28;20200;-51
2022/11/27 00:12:22;;;;;;;17.37;12.93;;;1.60;99.90;;;;;;5025807;28;20210;-51
2022/11/27 00:14:49;;;;;;;15.13;11.77;;;1.60;99.90;;;;;;5033645;28;20206;-50
2022/11/27 00:17:16;;;;;;;21.77;14.50;;;1.50;99.90;;;;;;5032244;28;20868;-51
2022/11/27 00:19:43;;;;;;;20.43;13.03;;;1.50;99.90;;;;;;5025872;28;20210;-50
2022/11/27 00:22:12;;;;;;;16.87;13.30;;;1.50;99.90;;;;;;5024883;28;20652;-49
2022/11/27 00:24:39;;;;;;;19.80;13.77;;;1.40;99.90;;;;;;5032200;28;20239;-50
2022/11/27 00:27:06;;;;;;;19.23;13.20;;;1.50;99.90;;;;;;5034247;28;20200;-51
2022/11/27 00:29:37;;;;;;;13.67;12.10;;;1.40;99.90;;;;;;5034168;28;20211;-49
2022/11/27 00:32:06;;;;;;;14.63;11.57;;;1.50;99.90;;;;;;5022829;28;20200;-51
2022/11/27 00:34:35;;;;;;;14.30;10.77;;;1.40;99.90;;;;;;5031303;28;20706;-50
2022/11/27 00:37:02;;;;;;;14.47;11.90;;;1.40;99.90;;;;;;5033758;28;20196;-50
2022/11/27 00:39:31;;;;;;;13.33;11.33;;;1.40;99.90;;;;;;5032312;28;20204;-49
2022/11/27 00:41:58;;;;;;;13.30;11.03;;;1.40;99.90;;;;;;5027769;28;20205;-49
2022/11/27 00:44:25;;;;;;;15.23;12.17;;;1.40;99.90;;;;;;5030218;28;20216;-49
2022/11/27 00:46:52;;;;;;;12.00;10.87;;;1.40;99.90;;;;;;5033362;28;20697;-51
2022/11/27 00:49:19;;;;;;;12.67;11.13;;;1.30;99.90;;;;;;5029206;28;20235;-50
2022/11/27 00:51:46;;;;;;;17.07;12.77;;;1.30;99.90;;;;;;5032735;28;20207;-49
2022/11/27 00:54:13;;;;;;;17.30;12.23;;;1.30;99.90;;;;;;5032868;28;20225;-51
2022/11/27 00:56:41;;;;;;;11.70;10.50;;;1.30;99.90;;;;;;5033595;28;20212;-50
2022/11/27 00:59:10;;;;;;;12.57;11.10;;;1.30;99.90;;;;;;5031608;28;20202;-50
2022/11/27 01:01:40;;;;;;;12.60;9.60;;;1.30;99.90;;;;;;5032430;28;20203;-49
2022/11/27 01:04:11;;;;;;;11.30;9.20;;;1.30;99.90;;;;;;5031149;28;20227;-51
2022/11/27 01:06:38;;;;;;;13.57;8.83;;;1.30;99.90;;;;;;5023765;28;20223;-51
2022/11/27 01:09:06;;;;;;;14.73;9.87;;;1.30;99.90;;;;;;5033257;28;20220;-51
2022/11/27 01:11:34;;;;;;;10.37;8.83;;;1.30;99.90;;;;;;5029142;28;20612;-51
2022/11/27 01:14:05;;;;;;;10.40;9.20;;;1.30;99.90;;;;;;5018642;28;20219;-50
2022/11/27 01:19:54;;;;;;;11.90;8.80;;;1.30;99.90;;;;;;5032030;28;20622;-49
2022/11/27 01:22:21;;;;;;;10.00;8.97;;;1.30;99.90;;;;;;5028366;28;20203;-49
2022/11/27 01:24:48;;;;;;;10.93;7.70;;;1.20;99.90;;;;;;5031859;28;20222;-50
2022/11/27 01:27:15;;;;;;;11.60;7.60;;;1.30;99.90;;;;;;5032949;28;20208;-49
2022/11/27 01:29:44;;;;;;;11.83;7.93;;;1.40;99.90;;;;;;5033031;28;20206;-49
2022/11/27 01:32:11;;;;;;;10.90;7.57;;;1.40;99.90;;;;;;5023979;28;20204;-51
2022/11/27 01:34:38;;;;;;;11.20;8.07;;;1.40;99.90;;;;;;5028966;28;20273;-49
2022/11/27 01:37:05;;;;;;;10.57;6.97;;;1.40;99.90;;;;;;5023558;28;20274;-50
2022/11/27 01:39:33;;;;;;;7.43;6.27;;;1.40;99.90;;;;;;5023935;28;20257;-51
2022/11/27 01:42:00;;;;;;;7.57;6.53;;;1.40;99.90;;;;;;5023519;28;20200;-49
2022/11/27 01:44:52;;;;;;;9.17;6.57;;;1.40;99.90;;;;;;5031841;28;20263;-50
2022/11/27 01:47:29;;;;;;;7.50;6.03;;;1.40;99.90;;;;;;5032535;28;20254;-50
2022/11/27 01:50:05;;;;;;;6.27;5.67;;;1.40;99.90;;;;;;5031692;28;20273;-49
2022/11/27 01:52:35;;;;;;;9.30;6.47;;;1.30;99.90;;;;;;5031739;28;20202;-49
2022/11/27 01:55:07;;;;;;;6.80;6.10;;;1.30;99.90;;;;;;5022969;28;20196;-49
2022/11/27 01:57:39;;;;;;;6.23;5.67;;;1.40;99.90;;;;;;5032403;28;20582;-50
2022/11/27 02:00:13;;;;;;;7.17;6.57;;;1.40;99.90;;;;;;5032317;28;20202;-50
2022/11/27 02:02:40;;;;;;;6.90;6.20;;;1.40;99.90;;;;;;5032180;28;20203;-51
2022/11/27 02:05:08;;;;;;;7.43;6.73;;;1.40;99.90;;;;;;5030961;28;20219;-49
2022/11/27 02:07:35;;;;;;;7.50;6.27;;;1.30;99.90;;;;;;5030761;28;20258;-50
2022/11/27 02:10:03;;;;;;;10.13;7.53;;;1.30;99.90;;;;;;5019604;28;20249;-49
2022/11/27 02:12:40;;;;;;;8.67;7.33;;;1.30;99.90;;;;;;5031729;28;20199;-49
2022/11/27 02:15:13;;;;;;;9.23;6.13;;;1.30;99.90;;;;;;5031227;28;20663;-50
2022/11/27 02:17:47;;;;;;;9.33;7.00;;;1.20;99.90;;;;;;5031832;28;20631;-49
2022/11/27 02:20:27;;;;;;;9.20;6.80;;;1.20;99.90;;;;;;5025464;28;20257;-51
2022/11/27 02:23:11;;;;;;;6.97;5.63;;;1.20;99.90;;;;;;5030428;28;20231;-50
2022/11/27 02:25:51;;;;;;;7.23;6.40;;;1.10;99.90;;;;;;5031900;28;20219;-49
2022/11/27 02:28:33;;;;;;;6.93;6.20;;;1.10;99.90;;;;;;5031658;28;20199;-51
2022/11/27 02:31:06;;;;;;;7.50;6.10;;;1.00;99.90;;;;;;5029670;28;20267;-50
2022/11/27 02:33:39;;;;;;;6.23;4.77;;;1.00;99.90;;;;;;5030745;28;20285;-49
2022/11/27 02:36:11;;;;;;;8.70;5.67;;;1.10;99.90;;;;;;5031970;28;20330;-50
2022/11/27 02:38:41;;;;;;;6.07;5.50;;;1.10;99.90;;;;;;5021883;28;20209;-49
2022/11/27 02:41:14;;;;;;;9.80;6.53;;;1.10;99.90;;;;;;5030772;28;20203;-51
2022/11/27 02:43:45;;;;;;;6.10;5.57;;;1.10;99.90;;;;;;5026167;28;20223;-51
2022/11/27 02:46:14;;;;;;;6.00;5.50;;;1.00;99.90;;;;;;5031676;28;20696;-50
2022/11/27 02:48:47;;;;;;;6.20;5.60;;;0.90;99.90;;;;;;5031577;28;20747;-50
2022/11/27 02:51:17;;;;;;;5.73;5.07;;;0.90;99.90;;;;;;5031661;28;20203;-49
2022/11/27 02:53:48;;;;;;;7.47;5.23;;;0.90;99.90;;;;;;5028941;28;20223;-50
2022/11/27 02:56:20;;;;;;;5.53;5.13;;;0.90;99.90;;;;;;5023613;28;20199;-51
2022/11/27 02:58:49;;;;;;;5.90;5.33;;;0.90;99.90;;;;;;5031694;28;20575;-50
2022/11/27 03:01:20;;;;;;;5.80;4.40;;;0.90;99.90;;;;;;5031650;28;20679;-50
2022/11/27 03:03:51;;;;;;;4.23;3.93;;;0.80;99.90;;;;;;5030762;28;20287;-49
2022/11/27 03:06:22;;;;;;;5.70;4.10;;;0.80;99.90;;;;;;5029615;28;20224;-51
2022/11/27 03:08:54;;;;;;;4.10;3.73;;;0.80;99.90;;;;;;5028451;28;20209;-50
2022/11/27 03:11:21;;;;;;;4.97;3.33;;;0.90;99.90;;;;;;5029713;28;20745;-51
2022/11/27 03:13:53;;;;;;;3.57;2.63;;;0.90;99.90;;;;;;5030677;28;20214;-50
2022/11/27 03:16:28;;;;;;;6.70;2.70;;;1.00;99.90;;;;;;5031463;28;20208;-51
2022/11/27 03:19:02;;;;;;;3.93;2.33;;;1.10;99.90;;;;;;5031258;28;20201;-49
2022/11/27 03:21:36;;;;;;;2.97;2.03;;;1.20;99.90;;;;;;5023057;28;20289;-50
2022/11/27 03:24:04;;;;;;;3.13;2.87;;;1.20;99.90;;;;;;5053493;22;20289;-51
2022/11/27 03:26:31;;;;;;;5.17;4.60;;;1.20;99.90;;;;;;5029519;28;20229;-51
2022/11/27 03:29:02;;;;;;;5.63;4.00;;;1.30;99.90;;;;;;5019258;28;20243;-50
2022/11/27 03:31:31;;;;;;;9.53;4.53;;;1.30;99.90;;;;;;5010645;28;20236;-52
2022/11/27 03:33:58;;;;;;;3.90;3.60;;;1.20;99.90;;;;;;5016327;28;20353;-51
2022/11/27 03:36:25;;;;;;;5.07;4.47;;;1.00;99.90;;;;;;5030511;28;20196;-51
2022/11/27 03:38:54;;;;;;;5.00;4.20;;;1.00;99.90;;;;;;5030468;28;20262;-50
2022/11/27 03:41:28;;;;;;;3.77;3.40;;;1.10;99.90;;;;;;5031877;28;20755;-51
2022/11/27 03:44:06;;;;;;;5.37;3.77;;;1.10;99.90;;;;;;5031084;28;20277;-51
2022/11/27 03:46:46;;;;;;;6.10;3.73;;;1.00;99.90;;;;;;5025231;28;20353;-51
2022/11/27 03:49:21;;;;;;;3.30;3.00;;;1.00;99.90;;;;;;5027376;28;20207;-51
2022/11/27 03:51:56;;;;;;;4.43;3.80;;;0.90;99.90;;;;;;5033784;28;20657;-51
2022/11/27 03:54:32;;;;;;;5.87;4.30;;;0.90;99.90;;;;;;5032891;28;20279;-51
2022/11/27 03:57:06;;;;;;;8.10;4.87;;;0.90;99.90;;;;;;5033188;28;20343;-51
2022/11/27 03:59:39;;;;;;;4.87;4.40;;;0.90;99.90;;;;;;5030918;28;20579;-50
2022/11/27 04:02:12;;;;;;;7.73;4.97;;;0.90;99.90;;;;;;5033532;28;20691;-51
2022/11/27 04:04:39;;;;;;;7.37;5.40;;;0.80;99.90;;;;;;5032660;28;20272;-51
2022/11/27 04:07:07;;;;;;;6.50;4.97;;;0.70;99.90;;;;;;5031703;28;20638;-50
2022/11/27 04:09:34;;;;;;;9.63;5.80;;;0.70;99.90;;;;;;5032236;28;20766;-52
2022/11/27 04:12:00;;;;;;;6.60;5.60;;;0.70;99.90;;;;;;5033270;28;20810;-51
2022/11/27 04:14:27;;;;;;;4.77;4.17;;;0.70;99.90;;;;;;5032675;28;20724;-51
2022/11/27 04:16:54;;;;;;;6.83;5.23;;;0.70;99.90;;;;;;5033022;28;20683;-51
2022/11/27 04:19:23;;;;;;;4.80;4.40;;;0.70;99.90;;;;;;5033224;28;20674;-51
2022/11/27 04:21:50;;;;;;;4.63;3.73;;;0.60;99.90;;;;;;5031484;28;20249;-51
2022/11/27 04:24:17;;;;;;;4.10;3.73;;;0.60;99.90;;;;;;5030137;28;20302;-51
2022/11/27 04:26:44;;;;;;;6.83;3.77;;;0.50;99.90;;;;;;5033108;28;20218;-51
2022/11/27 04:29:10;;;;;;;5.40;4.23;;;0.50;99.90;;;;;;5033297;28;20203;-51
2022/11/27 04:31:37;;;;;;;4.20;3.90;;;0.50;99.90;;;;;;5033038;28;20204;-51
2022/11/27 04:34:04;;;;;;;4.67;4.03;;;0.50;99.90;;;;;;5030725;28;20215;-51
2022/11/27 04:36:33;;;;;;;4.13;3.43;;;0.50;99.90;;;;;;5025525;28;20281;-50
2022/11/27 04:39:00;;;;;;;3.83;3.53;;;0.50;99.90;;;;;;5030120;28;20202;-51
2022/11/27 04:41:28;;;;;;;5.23;4.77;;;0.50;99.90;;;;;;5032579;28;20256;-51
2022/11/27 04:43:55;;;;;;;6.17;5.30;;;0.50;99.90;;;;;;5025814;28;20278;-51
2022/11/27 04:46:22;;;;;;;5.90;4.87;;;0.50;99.90;;;;;;5028624;28;20269;-50
2022/11/27 04:48:49;;;;;;;4.77;4.33;;;0.40;99.90;;;;;;5030020;28;20209;-51
2022/11/27 04:51:16;;;;;;;4.53;3.20;;;0.40;99.90;;;;;;5028043;28;20262;-50
2022/11/27 04:53:44;;;;;;;4.03;3.63;;;0.40;99.90;;;;;;5030113;28;20223;-51
2022/11/27 04:56:11;;;;;;;8.43;3.57;;;0.50;99.90;;;;;;5031159;28;20192;-51
2022/11/27 04:58:38;;;;;;;5.07;3.60;;;0.40;99.90;;;;;;5030989;28;20204;-49
2022/11/27 05:01:06;;;;;;;5.47;4.27;;;0.50;99.90;;;;;;5030687;28;20199;-51
2022/11/27 05:03:33;;;;;;;7.83;5.17;;;0.40;99.90;;;;;;5030348;28;20221;-51
2022/11/27 05:06:00;;;;;;;7.30;5.07;;;0.40;99.90;;;;;;5030680;28;20217;-51
2022/11/27 05:08:29;;;;;;;5.00;4.47;;;0.30;99.90;;;;;;5030740;28;20293;-50
2022/11/27 05:11:02;;;;;;;7.27;4.93;;;0.30;99.90;;;;;;5030895;28;20195;-50
2022/11/27 05:13:29;;;;;;;7.27;4.33;;;0.30;99.90;;;;;;5033329;28;20217;-49
2022/11/27 05:15:56;;;;;;;5.77;3.77;;;0.20;99.90;;;;;;5033684;28;20199;-50
2022/11/27 05:18:23;;;;;;;6.40;4.97;;;0.20;99.90;;;;;;5031074;28;20618;-50
2022/11/27 05:20:57;;;;;;;8.07;5.83;;;0.20;99.90;;;;;;5030737;28;20637;-51
2022/11/27 05:23:24;;;;;;;10.03;6.47;;;0.20;99.90;;;;;;5029958;28;20328;-51
2022/11/27 05:25:52;;;;;;;12.30;7.20;;;0.20;99.90;;;;;;5030502;28;20221;-50
2022/11/27 05:28:21;;;;;;;13.50;7.23;;;0.20;99.90;;;;;;5030661;28;20200;-49
2022/11/27 05:30:48;;;;;;;10.07;5.90;;;0.10;99.90;;;;;;5027426;28;20245;-50
2022/11/27 05:33:16;;;;;;;5.33;4.70;;;0.10;99.90;;;;;;5029964;28;20296;-50
2022/11/27 05:35:44;;;;;;;4.37;3.13;;;0.10;99.90;;;;;;5024854;28;20196;-50
2022/11/27 05:38:11;;;;;;;3.40;3.10;;;0.10;99.90;;;;;;5030305;28;20552;-51
2022/11/27 05:40:39;;;;;;;3.27;2.87;;;0.10;99.90;;;;;;5030460;28;20245;-50
2022/11/27 05:43:05;;;;;;;5.73;2.60;;;0.10;99.90;;;;;;5029999;28;20199;-52
2022/11/27 05:45:34;;;;;;;3.23;3.03;;;0.10;99.90;;;;;;5030067;28;20195;-50
2022/11/27 05:48:01;;;;;;;3.03;2.83;;;0.10;99.90;;;;;;5032361;28;20204;-51
2022/11/27 05:50:28;;;;;;;3.83;3.33;;;0.10;99.90;;;;;;5030008;28;20196;-51
2022/11/27 05:52:55;;;;;;;2.73;2.63;;;0.10;99.90;;;;;;5028793;28;20207;-52
2022/11/27 05:55:22;;;;;;;2.90;2.67;;;0.10;99.90;;;;;;5026455;28;20204;-51
2022/11/27 05:57:49;;;;;;;3.30;3.07;;;0.20;99.90;;;;;;5029000;28;20572;-51
2022/11/27 06:00:17;;;;;;;5.10;2.88;;;0.10;99.90;;;;;;5024426;28;20476;-51
2022/11/27 06:02:45;;;;;;;3.03;2.83;;;0.10;99.90;;;;;;5029317;28;20207;-51
2022/11/27 06:05:12;;;;;;;2.77;2.57;;;0.10;99.90;;;;;;5028827;28;20232;-52
2022/11/27 06:07:40;;;;;;;3.03;2.20;;;0.20;99.90;;;;;;5027812;28;20221;-51
2022/11/27 06:10:09;;;;;;;4.67;3.60;;;0.20;99.90;;;;;;5028173;28;20199;-51
2022/11/27 06:12:36;;;;;;;6.30;4.43;;;0.10;99.90;;;;;;5026126;28;20207;-52
2022/11/27 06:15:04;;;;;;;5.47;4.97;;;0.20;99.90;;;;;;5028752;28;20217;-51
2022/11/27 06:17:31;;;;;;;8.20;7.40;;;0.10;99.90;;;;;;5029349;28;20199;-50
2022/11/27 06:19:59;;;;;;;5.87;5.23;;;0.20;99.90;;;;;;5029449;28;20192;-50
2022/11/27 06:22:26;;;;;;;7.40;6.70;;;0.20;99.90;;;;;;5025738;28;20206;-52
2022/11/27 06:24:54;;;;;;;4.10;3.73;;;0.20;99.90;;;;;;5022873;28;20233;-50
2022/11/27 06:27:21;;;;;;;12.63;6.63;;;0.20;99.90;;;;;;5029257;28;20697;-50
2022/11/27 06:29:48;;;;;;;8.30;6.43;;;0.10;99.90;;;;;;5029200;28;20225;-50
2022/11/27 06:32:15;;;;;;;8.67;4.90;;;0.10;99.90;;;;;;5029306;28;20204;-51
2022/11/27 06:34:42;;;;;;;7.37;4.53;;;0.00;99.90;;;;;;5028405;28;20227;-51
2022/11/27 06:37:11;;;;;;;4.87;4.37;;;0.00;99.90;;;;;;5029237;28;20193;-51
2022/11/27 06:39:38;;;;;;;4.37;3.83;;;0.00;99.90;;;;;;5028465;28;20202;-50
2022/11/27 06:42:05;;;;;;;4.83;4.33;;;0.00;99.90;;;;;;5029303;28;20767;-50
2022/11/27 06:44:33;;;;;;;5.40;3.93;;;0.10;99.90;;;;;;5028433;28;20225;-51
2022/11/27 06:47:00;;;;;;;5.37;4.30;;;0.10;99.90;;;;;;5029126;28;20215;-50
2022/11/27 06:49:27;;;;;;;4.33;4.03;;;0.10;99.90;;;;;;5027069;28;20255;-50
2022/11/27 06:51:54;;;;;;;4.57;4.17;;;0.10;99.90;;;;;;5028965;28;20227;-50
2022/11/27 06:54:23;;;;;;;5.63;4.60;;;0.00;99.90;;;;;;5028376;28;20326;-51
2022/11/27 06:56:51;;;;;;;8.03;4.97;;;0.00;99.90;;;;;;5028170;28;20199;-51
2022/11/27 06:59:19;;;;;;;7.77;4.53;;;0.00;99.90;;;;;;5028945;28;20216;-52
2022/11/27 07:01:46;;;;;;;4.70;4.30;;;0.00;99.90;;;;;;5027448;28;20216;-53
2022/11/27 07:04:14;;;;;;;4.77;4.17;;;0.00;99.90;;;;;;5026475;28;20229;-50
2022/11/27 07:06:42;;;;;;;4.73;4.33;;;0.00;99.90;;;;;;5026257;28;20226;-50
2022/11/27 07:09:10;;;;;;;3.30;3.10;;;-0.10;99.90;;;;;;5029258;28;20209;-50
2022/11/27 07:11:39;;;;;;;3.90;3.60;;;-0.10;99.90;;;;;;5024024;28;20216;-50
2022/11/27 07:14:07;;;;;;;5.40;4.90;;;-0.10;99.90;;;;;;5027894;28;20232;-50
2022/11/27 07:16:36;;;;;;;6.53;5.60;;;-0.10;99.90;;;;;;5031289;28;20206;-50
2022/11/27 07:19:05;;;;;;;6.83;5.23;;;-0.10;99.90;;;;;;5031925;28;20343;-50
2022/11/27 07:21:32;;;;;;;7.00;6.30;;;0.00;99.90;;;;;;5031981;28;20786;-50
2022/11/27 07:24:00;;;;;;;6.23;5.13;;;0.00;99.90;;;;;;5028541;28;20254;-50
2022/11/27 07:26:29;;;;;;;5.20;4.70;;;0.00;99.90;;;;;;5031040;28;20320;-51
2022/11/27 07:28:58;;;;;;;9.80;5.43;;;0.00;99.90;;;;;;5027044;28;20208;-51
2022/11/27 07:31:27;;;;;;;5.87;5.27;;;0.10;99.90;;;;;;5032066;28;20215;-50
2022/11/27 07:33:55;;;;;;;7.50;6.77;;;0.20;99.90;;;;;;5031523;28;20381;-51
2022/11/27 07:36:24;;;;;;;8.53;7.00;;;0.20;99.90;;;;;;5028341;28;20200;-51
2022/11/27 07:38:51;;;;;;;9.50;8.60;;;0.30;99.90;;;;;;5032049;28;20201;-50
2022/11/27 07:41:19;;;;;;;10.43;8.60;;;0.40;99.90;;;;;;5031940;28;20203;-52
2022/11/27 07:43:46;;;;;;;12.63;9.43;;;0.50;99.90;;;;;;5023469;28;20232;-50
2022/11/27 07:46:17;;;;;;;12.03;8.93;;;0.60;99.90;;;;;;5029080;28;20267;-51
2022/11/27 07:48:45;;;;;;;18.03;13.73;;;0.70;99.90;;;;;;5029463;28;20218;-50
2022/11/27 07:51:14;;;;;;;17.07;12.80;;;0.70;99.90;;;;;;5033082;28;20255;-50
2022/11/27 07:53:42;;;;;;;16.60;12.40;;;0.80;99.90;;;;;;5030775;28;20226;-50
2022/11/27 07:56:11;;;;;;;17.27;13.00;;;0.90;99.90;;;;;;5029623;28;20203;-51
2022/11/27 07:58:38;;;;;;;18.85;14.40;;;0.90;99.90;;;;;;5019467;28;20448;-50
2022/11/27 08:01:07;;;;;;;21.30;14.63;;;0.90;99.90;;;;;;5030076;28;20580;-51
2022/11/27 08:03:36;;;;;;;18.33;12.67;;;1.00;99.90;;;;;;5024940;28;20283;-50
2022/11/27 08:06:04;;;;;;;17.53;10.97;;;0.90;99.90;;;;;;5044569;28;20207;-51
2022/11/27 08:08:32;;;;;;;11.17;9.20;;;1.00;99.90;;;;;;5040402;28;20201;-52
2022/11/27 08:10:59;;;;;;;10.10;8.27;;;1.00;99.90;;;;;;5041151;28;20532;-52
2022/11/27 08:13:26;;;;;;;16.43;11.77;;;1.00;99.90;;;;;;5049635;28;20218;-50
2022/11/27 08:15:53;;;;;;;11.83;9.97;;;1.00;99.90;;;;;;5047721;28;20229;-52
2022/11/27 08:18:20;;;;;;;16.70;11.63;;;1.10;99.90;;;;;;5050276;28;20256;-51
2022/11/27 08:20:49;;;;;;;17.60;11.33;;;1.10;99.90;;;;;;5051658;28;20210;-51
2022/11/27 08:23:16;;;;;;;17.53;12.67;;;1.20;99.90;;;;;;5046648;28;20238;-51
2022/11/27 08:25:44;;;;;;;14.63;11.87;;;1.40;99.90;;;;;;5045461;28;20217;-51
2022/11/27 08:28:11;;;;;;;11.50;9.80;;;1.60;99.90;;;;;;5041279;28;20228;-50
2022/11/27 08:30:38;;;;;;;12.07;10.53;;;1.80;99.90;;;;;;5049034;28;20199;-51
2022/11/27 08:33:05;;;;;;;13.53;10.47;;;2.10;99.90;;;;;;5044164;28;20661;-50
2022/11/27 08:35:32;;;;;;;7.87;6.47;;;2.40;99.90;;;;;;5052300;28;20573;-51
2022/11/27 08:38:01;;;;;;;6.17;3.90;;;2.80;99.90;;;;;;5053326;28;20196;-51
2022/11/27 08:40:28;;;;;;;7.07;5.20;;;3.20;99.90;;;;;;5053282;28;20211;-51
2022/11/27 08:42:55;;;;;;;28.03;10.63;;;3.60;99.90;;;;;;5053175;28;20307;-51
2022/11/27 08:45:21;;;;;;;20.73;7.90;;;4.10;99.90;;;;;;5049774;28;20266;-51
2022/11/27 08:47:48;;;;;;;3.83;3.43;;;4.50;99.90;;;;;;5051250;28;20212;-51
2022/11/27 08:50:16;;;;;;;4.40;4.00;;;4.70;99.90;;;;;;5045005;28;20205;-50
2022/11/27 08:52:42;;;;;;;4.50;4.10;;;4.80;99.90;;;;;;5047158;28;20246;-50
2022/11/27 08:55:11;;;;;;;5.30;4.80;;;4.90;99.90;;;;;;5051860;28;20652;-49
2022/11/27 08:57:38;;;;;;;6.33;4.70;;;5.10;99.90;;;;;;5033297;28;20688;-50
2022/11/27 09:00:07;;;;;;;6.73;5.37;;;5.40;99.90;;;;;;5048878;28;20648;-50
2022/11/27 09:02:35;;;;;;;5.70;5.07;;;5.90;99.90;;;;;;5049930;28;20201;-50
2022/11/27 09:05:06;;;;;;;6.00;5.30;;;6.30;99.90;;;;;;5040398;28;20280;-51
2022/11/27 09:07:33;;;;;;;7.00;6.17;;;6.70;99.90;;;;;;5046219;28;20232;-51
2022/11/27 09:10:00;;;;;;;13.00;8.13;;;6.90;99.90;;;;;;5048518;28;20618;-49
2022/11/27 09:12:28;;;;;;;18.20;9.77;;;6.90;99.90;;;;;;5050631;28;20200;-51
2022/11/27 09:14:55;;;;;;;14.00;8.60;;;6.90;99.90;;;;;;5050439;28;20219;-50
2022/11/27 09:17:22;;;;;;;11.30;7.63;;;6.90;99.90;;;;;;5045754;28;20675;-50
2022/11/27 09:19:49;;;;;;;12.70;7.37;;;7.10;99.90;;;;;;5051700;28;20206;-51
2022/11/27 09:22:16;;;;;;;8.63;5.90;;;7.10;99.90;;;;;;5048245;28;20729;-50
2022/11/27 09:24:43;;;;;;;7.87;5.93;;;7.20;99.90;;;;;;5046968;28;20294;-51
2022/11/27 09:27:11;;;;;;;9.67;6.00;;;7.00;99.90;;;;;;5047882;28;20219;-51
2022/11/27 09:29:39;;;;;;;9.87;5.47;;;7.00;99.90;;;;;;5047012;28;20199;-51
2022/11/27 09:32:06;;;;;;;7.90;6.97;;;7.10;99.90;;;;;;5045124;28;20211;-50
2022/11/27 09:34:34;;;;;;;7.80;5.87;;;7.30;99.90;;;;;;5049115;28;20212;-51
2022/11/27 09:37:01;;;;;;;5.70;5.20;;;7.30;99.90;;;;;;5045787;28;20246;-51
2022/11/27 09:39:33;;;;;;;7.57;6.77;;;7.40;99.90;;;;;;5048639;28;20574;-51
2022/11/27 09:42:03;;;;;;;8.97;6.50;;;7.10;99.90;;;;;;5050901;28;20687;-52
2022/11/27 09:44:39;;;;;;;5.90;5.40;;;7.30;99.90;;;;;;5049347;28;20223;-53
2022/11/27 09:47:16;;;;;;;7.00;6.03;;;7.30;99.90;;;;;;5048084;28;20693;-52
2022/11/27 09:49:48;;;;;;;6.73;5.90;;;7.20;99.90;;;;;;5048350;28;20202;-51
2022/11/27 09:52:22;;;;;;;6.10;5.50;;;7.00;99.90;;;;;;5043672;28;20198;-51
2022/11/27 09:54:55;;;;;;;7.40;6.80;;;6.80;99.90;;;;;;5048719;28;20222;-51
2022/11/27 09:57:28;;;;;;;7.40;6.30;;;6.90;99.90;;;;;;5045284;28;20291;-51
2022/11/27 09:59:58;;;;;;;7.13;6.40;;;6.70;99.90;;;;;;5047836;28;20665;-52
2022/11/27 10:02:29;;;;;;;8.13;7.33;;;6.90;99.90;;;;;;5046064;28;20235;-49
2022/11/27 10:04:58;;;;;;;7.83;6.90;;;7.20;99.90;;;;;;5039430;28;20275;-49
2022/11/27 10:07:33;;;;;;;7.33;6.63;;;7.30;99.90;;;;;;5046489;28;20317;-49
2022/11/27 10:10:13;;;;;;;6.63;5.87;;;7.80;99.90;;;;;;5044734;28;21044;-52
2022/11/27 10:12:49;;;;;;;6.50;5.83;;;8.30;99.90;;;;;;5048206;28;20207;-50
2022/11/27 10:15:26;;;;;;;6.07;5.57;;;8.90;99.90;;;;;;5048501;28;20237;-52
2022/11/27 10:18:01;;;;;;;8.60;6.07;;;9.40;99.90;;;;;;5047877;28;20195;-51
2022/11/27 10:20:36;;;;;;;9.97;6.07;;;9.40;99.90;;;;;;5047486;28;20199;-52
2022/11/27 10:23:08;;;;;;;6.53;6.03;;;9.30;99.90;;;;;;5047428;28;20199;-52
2022/11/27 10:25:41;;;;;;;6.83;6.10;;;9.10;99.90;;;;;;5050307;28;20252;-51
2022/11/27 10:28:19;;;;;;;7.30;6.20;;;8.70;99.90;;;;;;5042748;28;21509;-51
2022/11/27 10:30:52;;;;;;;6.80;6.20;;;8.20;99.90;;;;;;5040168;28;20199;-50
2022/11/27 10:33:27;;;;;;;5.87;5.37;;;7.80;99.90;;;;;;5044375;28;20240;-51
2022/11/27 10:35:54;;;;;;;7.07;5.17;;;7.40;99.90;;;;;;5049883;28;20676;-50
2022/11/27 10:38:25;;;;;;;5.30;4.83;;;7.00;99.90;;;;;;5049685;28;20202;-51
2022/11/27 10:41:02;;;;;;;5.93;5.37;;;7.00;99.90;;;;;;5049165;28;20202;-50
2022/11/27 10:43:29;;;;;;;7.07;6.13;;;6.90;99.90;;;;;;5042264;28;20645;-53
2022/11/27 10:46:01;;;;;;;7.13;6.10;;;6.90;99.90;;;;;;5048862;28;20203;-50
2022/11/27 10:48:29;;;;;;;6.07;5.53;;;6.90;99.90;;;;;;5049699;28;20223;-51
2022/11/27 10:50:56;;;;;;;6.03;5.53;;;6.80;99.90;;;;;;5049697;28;20669;-49
2022/11/27 10:53:27;;;;;;;6.27;5.67;;;7.00;99.90;;;;;;5043370;28;20246;-51
2022/11/27 10:56:20;;;;;;;6.23;5.63;;;7.10;99.90;;;;;;5050022;28;20200;-51
2022/11/27 10:58:52;;;;;;;5.90;5.40;;;7.10;99.90;;;;;;5046635;28;20191;-50
2022/11/27 11:01:21;;;;;;;5.40;4.93;;;7.20;99.90;;;;;;5045456;28;20211;-50
2022/11/27 11:03:50;;;;;;;6.50;5.90;;;7.20;99.90;;;;;;5040184;28;20298;-51
2022/11/27 11:06:21;;;;;;;7.37;5.83;;;7.30;99.90;;;;;;5048354;28;20204;-52
2022/11/27 11:08:48;;;;;;;6.53;5.93;;;7.20;99.90;;;;;;5045802;28;20274;-50
2022/11/27 11:11:25;;;;;;;9.03;7.03;;;7.30;99.90;;;;;;5049948;28;20199;-52
2022/11/27 11:13:53;;;;;;;6.17;5.67;;;7.30;99.90;;;;;;5043280;28;20232;-52
2022/11/27 11:16:23;;;;;;;6.37;5.30;;;7.30;99.90;;;;;;5048661;28;20213;-50
2022/11/27 11:18:53;;;;;;;6.53;5.77;;;7.10;99.90;;;;;;5047633;28;20206;-52
2022/11/27 11:21:26;;;;;;;7.33;6.63;;;7.00;99.90;;;;;;5049323;28;20213;-52
2022/11/27 11:23:58;;;;;;;7.13;6.30;;;7.10;99.90;;;;;;5048755;28;20238;-50
2022/11/27 11:26:31;;;;;;;7.83;5.27;;;7.10;99.90;;;;;;5046792;28;20238;-52
2022/11/27 11:29:00;;;;;;;6.20;5.70;;;7.00;99.90;;;;;;5062751;23;20215;-48
2022/11/27 11:31:33;;;;;;;6.40;5.87;;;6.80;99.90;;;;;;5035527;28;20210;-49
2022/11/27 11:34:04;;;;;;;6.20;4.90;;;6.90;99.90;;;;;;5019952;28;20551;-49
2022/11/27 11:36:32;;;;;;;5.07;4.67;;;6.90;99.90;;;;;;5026852;28;20212;-49
2022/11/27 11:38:59;;;;;;;4.03;3.83;;;6.90;99.90;;;;;;5031780;28;20203;-49
2022/11/27 11:41:37;;;;;;;7.57;6.70;;;6.90;99.90;;;;;;5046060;28;20204;-49
2022/11/27 11:44:04;;;;;;;7.00;6.03;;;6.90;99.90;;;;;;5048880;28;20719;-49
2022/11/27 11:46:35;;;;;;;4.77;4.47;;;6.80;99.90;;;;;;5049625;28;20207;-49
2022/11/27 11:49:07;;;;;;;7.60;5.73;;;6.80;99.90;;;;;;5047818;28;20219;-48
2022/11/27 11:51:55;;;;;;;6.70;4.20;;;6.80;99.90;;;;;;5048831;28;20201;-48
2022/11/27 11:54:38;;;;;;;4.63;3.70;;;6.70;99.90;;;;;;5045310;28;20207;-50
2022/11/27 11:57:19;;;;;;;4.50;4.10;;;6.60;99.90;;;;;;5047496;28;20214;-50
2022/11/27 11:59:55;;;;;;;4.57;4.23;;;6.50;99.90;;;;;;5044702;28;20228;-49
2022/11/27 12:02:39;;;;;;;4.33;3.93;;;6.60;99.90;;;;;;5047583;28;20274;-49
2022/11/27 12:05:24;;;;;;;4.63;3.60;;;6.80;99.90;;;;;;5051172;28;20609;-49
2022/11/27 12:08:19;;;;;;;5.83;4.47;;;6.90;99.90;;;;;;5051866;28;20219;-49
2022/11/27 12:10:58;;;;;;;4.13;3.83;;;7.10;99.90;;;;;;5050668;28;20229;-49
2022/11/27 12:13:42;;;;;;;4.70;4.30;;;7.00;99.90;;;;;;5049297;28;20707;-49
2022/11/27 12:16:16;;;;;;;4.53;4.23;;;7.10;99.90;;;;;;5051308;28;20239;-48
2022/11/27 12:18:56;;;;;;;4.87;4.47;;;7.10;99.90;;;;;;5051684;28;20681;-49
2022/11/27 12:21:35;;;;;;;4.27;3.97;;;7.20;99.90;;;;;;5052378;28;20300;-49
2022/11/27 12:24:19;;;;;;;3.90;3.30;;;7.20;99.90;;;;;;5050991;28;20206;-49
2022/11/27 12:26:59;;;;;;;3.70;3.40;;;7.10;99.90;;;;;;5049099;28;20209;-49
2022/11/27 12:30:02;;;;;;;5.60;3.60;;;7.00;99.90;;;;;;5046921;28;20229;-49
2022/11/27 12:33:03;;;;;;;4.30;3.93;;;6.90;99.90;;;;;;5012264;28;20206;-48
2022/11/27 12:35:35;;;;;;;4.63;4.23;;;6.80;99.90;;;;;;5048991;28;20737;-49
2022/11/27 12:38:22;;;;;;;3.90;3.43;;;6.80;99.90;;;;;;5051571;28;20266;-49
2022/11/27 12:41:05;;;;;;;4.67;4.37;;;6.70;99.90;;;;;;5049439;28;20573;-49
2022/11/27 12:43:38;;;;;;;3.83;3.57;;;6.60;99.90;;;;;;5048959;28;20609;-50
2022/11/27 12:46:13;;;;;;;4.53;4.23;;;6.60;99.90;;;;;;5050938;28;20597;-50
2022/11/27 12:48:46;;;;;;;4.00;3.63;;;6.50;99.90;;;;;;5049765;28;20310;-48
2022/11/27 12:51:20;;;;;;;4.63;4.23;;;6.50;99.90;;;;;;5049534;28;20291;-49
2022/11/27 12:53:55;;;;;;;3.53;3.33;;;6.40;99.90;;;;;;5050148;28;20208;-49
2022/11/27 12:56:28;;;;;;;5.07;4.63;;;6.40;99.90;;;;;;5051640;28;20201;-51
2022/11/27 12:59:06;;;;;;;4.77;4.37;;;6.40;99.90;;;;;;5050722;28;20550;-50
2022/11/27 13:01:39;;;;;;;5.27;4.80;;;6.40;99.90;;;;;;5048365;28;20624;-50
2022/11/27 13:04:18;;;;;;;4.57;4.20;;;6.30;99.90;;;;;;5049521;28;20210;-49
2022/11/27 13:06:55;;;;;;;3.80;3.50;;;6.30;99.90;;;;;;5051495;28;20242;-49
2022/11/27 13:09:30;;;;;;;4.20;3.90;;;6.20;99.90;;;;;;5051479;28;20233;-49
2022/11/27 13:11:58;;;;;;;4.10;3.80;;;6.20;99.90;;;;;;5051595;28;20195;-50